Indian Springs Village, Alabama
Current Conditions -  °F | °C
As of 9:53 AM on Friday 31 Oct 2014 (Local Time) from KEET Reporting Station
Broken Clouds Broken Clouds  
Wind Chill: 58°   Ceiling: 7500
Heat Index: 58°   Visibility: 10mi
Dew Point: 46°   Wind: 3mph
Humidity: 65%   Direction: 40°NE
Pressure: 30"   Gusts: NA
Location:  33.3024°N, 86.8026°W
Report Text: KEET 311453Z AUTO 04003KT 10SM BKN075 14/08 A3000 RMK AO2 SLP156 T01440078 53001
Loading
Personal Weather Stations






























Interactive Weather Map
Tropical Storm Tracking
New forecast layout! Learn more

10-Day Weather Forecast

Advertisements
Track Severe Weather on mobile